LITTLE EGG INLET NEAR TUCKERTON HADS current weather conditions

sailwx.info

Wind from 112 at 10 knots gusting 12

Air temperature 16.9° C
Dewpoint 15.6° C

Last reported at 2019-Oct-22 21:00 UTC.
Time now 2019-Oct-22 22:05 UTC

Location: N 39°31' W 074°19'.
View on Google Maps.

See reports from other nearby stations

  
Tides and Currents Weather Stations Pressure Air Temp Water Temp Dewpoint Dewpoint Depression Visibility Wind Speed Wind Dir Waves Ship Positions
date/time (UTC)wind fromknots sea level pressurealtimeterstation pressurevisibilityair tempwater tempwave heightnotes
2019-Oct-22 21:00 112 10 gusting 12 16.9
2019-Oct-22 20:54 115 10 gusting 12 16.9
2019-Oct-22 20:48 113 10 gusting 13 16.9
2019-Oct-22 20:42 116 11 gusting 14 16.9
2019-Oct-22 20:36 120 12 gusting 14 16.9
2019-Oct-22 20:30 118 11 gusting 13 16.9
2019-Oct-22 20:24 116 11 gusting 13 16.8
2019-Oct-22 20:18 115 10 gusting 12 16.8
2019-Oct-22 20:12 119 11 gusting 13 16.8
2019-Oct-22 20:06 115 11 gusting 14 16.8
2019-Oct-22 20:00 114 11 gusting 14 16.8
2019-Oct-22 19:54 115 11 gusting 14 16.8
2019-Oct-22 19:48 114 11 gusting 14 16.8
2019-Oct-22 19:42 116 13 gusting 16 16.8
2019-Oct-22 19:36 113 12 gusting 16 16.8
2019-Oct-22 19:30 112 13 gusting 16 16.8
2019-Oct-22 19:24 113 13 gusting 17 16.8
2019-Oct-22 19:18 113 13 gusting 17 16.8
2019-Oct-22 19:12 114 11 gusting 14 16.8
2019-Oct-22 19:06 110 12 gusting 16 16.8
2019-Oct-22 19:00 107 13 gusting 17 16.8
2019-Oct-22 18:54 109 13 gusting 16 16.8
2019-Oct-22 18:48 110 12 gusting 15 16.8
2019-Oct-22 18:42 109 12 gusting 16 16.8
2019-Oct-22 18:36 109 12 gusting 16 16.8
2019-Oct-22 18:30 109 13 gusting 17 16.8
2019-Oct-22 18:24 109 12 gusting 15 16.9
2019-Oct-22 18:18 108 12 gusting 15 16.9
2019-Oct-22 18:12 108 12 gusting 17 16.9
2019-Oct-22 18:06 108 12 gusting 17 16.9
2019-Oct-22 18:00 107 12 gusting 17 16.9
2019-Oct-22 17:54 107 13 gusting 17 16.8
2019-Oct-22 17:48 105 12 gusting 17 16.8
2019-Oct-22 17:42 105 11 gusting 16 16.8
2019-Oct-22 17:36 105 10 gusting 16 16.8
2019-Oct-22 17:30 105 11 gusting 16 16.8
2019-Oct-22 17:24 104 8 gusting 13 16.8
2019-Oct-22 17:18 104 9 gusting 13 16.8
2019-Oct-22 17:12 104 9 gusting 14 16.8
2019-Oct-22 17:06 105 9 gusting 15 16.9
2019-Oct-22 17:00 103 9 gusting 15 16.9
2019-Oct-22 16:54 104 9 gusting 14 16.9
2019-Oct-22 16:48 103 7 gusting 14 16.8
2019-Oct-22 16:42 104 6 gusting 13 16.8
2019-Oct-22 16:36 127 4 gusting 14 16.8
2019-Oct-22 16:30 106 10 gusting 15 16.7
2019-Oct-22 16:24 102 8 gusting 13 16.7
2019-Oct-22 16:18 105 9 gusting 14 16.7
2019-Oct-22 16:12 103 8 gusting 14 16.7
2019-Oct-22 16:06 105 8 gusting 14 16.6
2019-Oct-22 16:00 100 7 gusting 12 16.6
2019-Oct-22 15:54 103 7 gusting 14 16.5
2019-Oct-22 15:48 103 8 gusting 13 16.4
2019-Oct-22 15:42 104 8 gusting 13 16.3
2019-Oct-22 15:36 094 4 gusting 10 16.2
2019-Oct-22 15:30 097 3 gusting 10 16.2
2019-Oct-22 15:24 086 4 gusting 10 16.1
2019-Oct-22 15:18 089 2 gusting 9 16.1
2019-Oct-22 15:12 195 2 gusting 9 16.1
2019-Oct-22 15:06 080 3 gusting 12 16.1
2019-Oct-22 15:00 098 3 gusting 10 16.1
2019-Oct-22 14:54 100 3 gusting 9 16.1
2019-Oct-22 14:48 096 4 gusting 11 16.1
2019-Oct-22 14:42 095 4 gusting 11 16.2
2019-Oct-22 14:36 025 2 gusting 8 16.3
2019-Oct-22 14:30 083 2 gusting 8 16.2
2019-Oct-22 14:24 167 2 gusting 8 16.1
2019-Oct-22 14:18 015 2 gusting 10 16.1
2019-Oct-22 14:12 063 2 gusting 7 16.1
2019-Oct-22 14:06 018 2 gusting 9 16.1
2019-Oct-22 14:00 051 2 gusting 7 16.1
2019-Oct-22 13:54 041 1 gusting 6 16.0
2019-Oct-22 13:48 047 2 gusting 7 16.0
2019-Oct-22 13:42 015 2 gusting 8 16.0
2019-Oct-22 13:36 093 3 gusting 10 15.8
2019-Oct-22 13:30 010 3 gusting 14 15.8
2019-Oct-22 13:24 139 2 gusting 8 15.8
2019-Oct-22 13:18 032 2 gusting 10 15.8
2019-Oct-22 13:12 332 2 gusting 9 15.8
2019-Oct-22 13:06 318 2 gusting 8 15.8
2019-Oct-22 13:00 070 2 gusting 9 15.7
2019-Oct-22 12:54 228 2 gusting 8 15.6
2019-Oct-22 12:48 298 2 gusting 9 15.5
2019-Oct-22 12:42 343 2 gusting 8 15.4
2019-Oct-22 12:36 087 2 gusting 12 15.4
2019-Oct-22 12:30 319 2 gusting 10 15.4
2019-Oct-22 12:24 308 2 gusting 6 15.4
2019-Oct-22 12:18 334 2 gusting 8 15.3
2019-Oct-22 12:12 317 2 gusting 6 15.3
2019-Oct-22 12:06 337 2 gusting 5 15.2
2019-Oct-22 12:00 018 2 gusting 7 15.2
2019-Oct-22 11:54 041 2 gusting 8 15.1
2019-Oct-22 11:48 023 2 gusting 7 15.1
2019-Oct-22 11:42 049 2 gusting 9 15.0
2019-Oct-22 11:36 283 1 gusting 6 15.0
2019-Oct-22 11:30 040 2 gusting 9 15.0
2019-Oct-22 11:24 022 2 gusting 7 15.0
2019-Oct-22 11:18 018 2 gusting 6 15.0
2019-Oct-22 11:12 299 2 gusting 8 15.0
2019-Oct-22 11:06 318 2 gusting 6 15.0
2019-Oct-22 11:00 024 2 gusting 8 15.1
2019-Oct-22 10:54 045 2 gusting 9 15.0
2019-Oct-22 10:48 336 2 gusting 7 15.1
2019-Oct-22 10:42 043 2 gusting 7 15.1
2019-Oct-22 10:36 039 2 gusting 7 15.1
2019-Oct-22 10:30 024 2 gusting 6 15.1
2019-Oct-22 10:24 249 2 gusting 7 15.1
2019-Oct-22 10:18 022 2 gusting 7 15.1
2019-Oct-22 10:12 343 1 gusting 5 15.0
2019-Oct-22 10:06 006 2 gusting 8 15.0
2019-Oct-22 10:00 290 2 gusting 6 15.0
2019-Oct-22 09:54 330 2 gusting 6 15.0
2019-Oct-22 09:48 021 3 gusting 7 15.1
2019-Oct-22 09:42 017 2 gusting 8 15.0
2019-Oct-22 09:36 356 2 gusting 8 15.0
2019-Oct-22 09:30 026 2 gusting 9 15.1
2019-Oct-22 09:24 039 3 gusting 7 15.2
2019-Oct-22 09:18 027 2 gusting 8 15.2
2019-Oct-22 09:12 017 2 gusting 6 15.2
2019-Oct-22 09:06 038 3 gusting 10 15.3
2019-Oct-22 09:00 047 6 gusting 12 15.3
2019-Oct-22 08:54 045 5 gusting 10 15.4
2019-Oct-22 08:48 043 5 gusting 11 15.4
2019-Oct-22 08:42 043 5 gusting 9 15.4
2019-Oct-22 08:36 043 5 gusting 9 15.4
2019-Oct-22 08:30 043 5 gusting 10 15.4
2019-Oct-22 08:24 043 5 gusting 9 15.4
2019-Oct-22 08:18 040 5 gusting 10 15.4
2019-Oct-22 08:12 039 4 gusting 10 15.4
2019-Oct-22 08:06 042 4 gusting 11 15.3
2019-Oct-22 08:00 038 3 gusting 9 15.3
2019-Oct-22 07:54 045 3 gusting 9 15.4
2019-Oct-22 07:48 015 2 gusting 8 15.4
2019-Oct-22 07:42 004 2 gusting 7 15.4
2019-Oct-22 07:36 020 2 gusting 7 15.4
2019-Oct-22 07:30 336 1 gusting 8 15.4
2019-Oct-22 07:24 028 1 gusting 6 15.4
2019-Oct-22 07:18 351 2 gusting 10 15.4
2019-Oct-22 07:12 001 2 gusting 7 15.4
2019-Oct-22 07:06 302 2 gusting 8 15.5
2019-Oct-22 07:00 046 3 gusting 10 15.5
2019-Oct-22 06:54 124 2 gusting 9 15.5
2019-Oct-22 06:48 013 2 gusting 8 15.5
2019-Oct-22 06:42 080 2 gusting 8 15.5
2019-Oct-22 06:36 077 2 gusting 9 15.6
2019-Oct-22 06:30 067 2 gusting 10 15.6
2019-Oct-22 06:24 087 3 gusting 10 15.6
2019-Oct-22 06:18 047 3 gusting 9 15.6
2019-Oct-22 06:12 080 2 gusting 9 15.7
2019-Oct-22 06:06 348 1 gusting 7 15.7
2019-Oct-22 06:00 073 2 gusting 8 15.7
2019-Oct-22 05:54 003 1 gusting 6 15.7
2019-Oct-22 05:48 343 1 gusting 5 15.7
2019-Oct-22 05:42 300 2 gusting 8 15.6
2019-Oct-22 05:36 263 2 gusting 8 15.6
2019-Oct-22 05:30 214 2 gusting 6 15.6
2019-Oct-22 05:24 028 2 gusting 7 15.7
2019-Oct-22 05:18 333 1 gusting 6 15.6
2019-Oct-22 05:12 016 2 gusting 6 15.6
2019-Oct-22 05:06 333 1 gusting 5 15.6
2019-Oct-22 05:00 183 1 gusting 5 15.6
2019-Oct-22 04:54 15.7
2019-Oct-22 04:48 009 1 gusting 6 15.7
2019-Oct-22 04:42 294 1 gusting 6 15.8
2019-Oct-22 04:36 351 1 gusting 5 15.7
2019-Oct-22 04:30 223 1 gusting 6 15.6
2019-Oct-22 04:24 354 1 gusting 4 15.6
2019-Oct-22 04:18 291 1 gusting 7 15.6
2019-Oct-22 04:12 017 1 gusting 6 15.6
2019-Oct-22 04:06 043 1 gusting 7 15.6
2019-Oct-22 04:00 007 1 gusting 5 15.7
2019-Oct-22 03:54 037 2 gusting 7 15.7
2019-Oct-22 03:48 035 3 gusting 7 15.7
2019-Oct-22 03:42 041 2 gusting 6 15.7
2019-Oct-22 03:36 026 3 gusting 9 15.7
2019-Oct-22 03:30 045 3 gusting 7 15.7
2019-Oct-22 03:24 022 3 gusting 8 15.7
2019-Oct-22 03:18 040 4 gusting 9 15.7
2019-Oct-22 03:12 041 4 gusting 7 15.6
2019-Oct-22 03:06 041 5 gusting 8 15.6
2019-Oct-22 03:00 038 4 gusting 7 15.6
2019-Oct-22 02:54 035 3 gusting 6 15.7
2019-Oct-22 02:48 039 4 gusting 8 15.8
2019-Oct-22 02:42 039 4 gusting 8 15.8
2019-Oct-22 02:36 038 4 gusting 11 15.6
2019-Oct-22 02:30 037 4 gusting 9 15.7
2019-Oct-22 02:24 033 4 gusting 8 15.7
2019-Oct-22 02:18 035 3 gusting 6 15.7
2019-Oct-22 02:12 041 5 gusting 8 15.7
2019-Oct-22 02:06 039 5 gusting 8 15.7
2019-Oct-22 02:00 043 5 gusting 7 15.7
2019-Oct-22 01:54 037 4 gusting 8 15.7
2019-Oct-22 01:48 042 4 gusting 7 15.7
2019-Oct-22 01:42 042 5 gusting 8 15.7
2019-Oct-22 01:36 043 5 gusting 9 15.7
2019-Oct-22 01:30 039 5 gusting 11 15.7
2019-Oct-22 01:24 040 5 gusting 11 15.7
2019-Oct-22 01:18 040 5 gusting 11 15.5
2019-Oct-22 01:12 041 5 gusting 8 15.5
2019-Oct-22 01:06 042 6 gusting 8 15.5
2019-Oct-22 01:00 043 6 gusting 8 15.5
2019-Oct-22 00:54 039 5 gusting 9 15.5
2019-Oct-22 00:48 042 5 gusting 9 15.5
2019-Oct-22 00:42 043 7 gusting 11 15.5
2019-Oct-22 00:36 042 6 gusting 12 15.5
2019-Oct-22 00:30 045 6 gusting 11 15.5
2019-Oct-22 00:24 042 7 gusting 13 15.5
2019-Oct-22 00:18 042 6 gusting 12 15.5
2019-Oct-22 00:12 040 5 gusting 11 15.4
2019-Oct-22 00:06 044 8 gusting 16 15.4
2019-Oct-22 00:00 046 8 gusting 16 15.3
2019-Oct-21 23:54 042 9 gusting 16 15.2
2019-Oct-21 23:48 045 8 gusting 14 15.2
2019-Oct-21 23:42 043 11 gusting 17 15.3
2019-Oct-21 23:36 044 9 gusting 13 15.2
2019-Oct-21 23:30 044 9 gusting 15 15.2
2019-Oct-21 23:24 042 8 gusting 13 15.2
2019-Oct-21 23:18 043 9 gusting 13 15.1
2019-Oct-21 23:12 038 7 gusting 13 15.0
2019-Oct-21 23:06 032 5 gusting 9 14.9
2019-Oct-21 23:00 030 7 gusting 11 14.9
2019-Oct-21 22:54 027 7 gusting 10 14.9
2019-Oct-21 22:48 032 6 gusting 12 14.9
2019-Oct-21 22:42 028 7 gusting 10 14.8
2019-Oct-21 22:36 025 6 gusting 9 14.8
2019-Oct-21 22:30 022 7 gusting 10 14.8
2019-Oct-21 22:24 022 6 gusting 9 14.8
2019-Oct-21 22:18 025 7 gusting 9 14.8
2019-Oct-21 22:12 025 6 gusting 9 14.8
2019-Oct-21 22:06 024 6 gusting 9 14.8
2019-Oct-21 22:00 025 7 gusting 10 14.9
2019-Oct-21 21:54 025 7 gusting 10 14.9
2019-Oct-21 21:48 022 7 gusting 10 14.9
2019-Oct-21 21:42 023 7 gusting 10 14.9
2019-Oct-21 21:36 022 7 gusting 10 14.9
2019-Oct-21 21:30 020 7 gusting 11 14.9
2019-Oct-21 21:24 018 7 gusting 10 15.0
2019-Oct-21 21:18 017 8 gusting 11 15.0
2019-Oct-21 21:12 019 7 gusting 11 15.0
2019-Oct-21 21:06 023 9 gusting 13 15.0
2019-Oct-21 21:00 026 9 gusting 12 15.0
2019-Oct-21 20:54 023 9 gusting 12 15.0
2019-Oct-21 20:48 024 9 gusting 12 15.0
2019-Oct-21 20:42 026 10 gusting 13 15.0
2019-Oct-21 20:36 026 10 gusting 15 15.0
2019-Oct-21 20:30 028 9 gusting 15 15.1
2019-Oct-21 20:24 025 10 gusting 13 15.1
2019-Oct-21 20:18 024 10 gusting 14 15.1
2019-Oct-21 20:12 021 12 gusting 15 15.1
2019-Oct-21 20:06 023 12 gusting 15 15.2
2019-Oct-21 20:00 021 12 gusting 17 15.2
2019-Oct-21 19:54 021 12 gusting 14 15.1
2019-Oct-21 19:48 022 12 gusting 16 15.2
2019-Oct-21 19:42 020 11 gusting 15 15.1
2019-Oct-21 19:36 021 11 gusting 17 15.1
2019-Oct-21 19:30 021 12 gusting 16 15.0
2019-Oct-21 19:24 020 12 gusting 16 15.0
2019-Oct-21 19:18 025 14 gusting 18 15.0
2019-Oct-21 19:12 024 14 gusting 19 14.9
2019-Oct-21 19:06 026 12 gusting 16 14.9
2019-Oct-21 19:00 024 13 gusting 17 15.0
2019-Oct-21 18:54 023 13 gusting 18 14.9
2019-Oct-21 18:48 027 15 gusting 19 14.9
2019-Oct-21 18:42 026 13 gusting 17 15.0
2019-Oct-21 18:36 026 14 gusting 19 15.0
2019-Oct-21 18:30 025 13 gusting 18 15.0
2019-Oct-21 18:24 027 13 gusting 17 15.0
2019-Oct-21 18:18 024 12 gusting 17 15.0
2019-Oct-21 18:12 022 13 gusting 18 15.0
2019-Oct-21 18:06 023 14 gusting 18 14.9
2019-Oct-21 18:00 020 14 gusting 18 14.9
2019-Oct-21 17:48 018 15 gusting 18 14.8
2019-Oct-21 17:30 14.8
2019-Oct-21 17:18 021 15 gusting 21 14.8
2019-Oct-21 17:12 017 16 gusting 22 14.8
2019-Oct-21 17:06 021 15 gusting 21 14.9
2019-Oct-21 17:00 020 13 gusting 19 15.2
2019-Oct-21 16:54 023 15 gusting 21 15.2
2019-Oct-21 16:48 022 14 gusting 21 15.1
2019-Oct-21 16:42 024 15 gusting 20 15.2
2019-Oct-21 16:36 018 15 gusting 20 15.1
2019-Oct-21 16:30 018 14 gusting 20 15.0
2019-Oct-21 16:24 010 15 gusting 20 15.1
2019-Oct-21 16:18 012 14 gusting 19 15.3
2019-Oct-21 16:12 014 15 gusting 20 15.1
2019-Oct-21 16:06 018 15 gusting 20 15.3
2019-Oct-21 16:00 015 16 gusting 22 15.0
2019-Oct-21 15:54 011 16 gusting 22 15.2
2019-Oct-21 15:48 017 14 gusting 20 15.6
2019-Oct-21 15:42 017 16 gusting 23 15.3
2019-Oct-21 15:36 018 17 gusting 23 15.2
2019-Oct-21 15:30 019 16 gusting 21 15.3
2019-Oct-21 15:24 016 15 gusting 22 15.4
2019-Oct-21 15:18 021 15 gusting 21 15.4
2019-Oct-21 15:12 019 16 gusting 22 15.1
2019-Oct-21 15:06 008 15 gusting 22 15.3
2019-Oct-21 15:00 012 16 gusting 22 15.0
2019-Oct-21 14:54 011 17 gusting 23 14.8
2019-Oct-21 14:48 010 16 gusting 22 15.0
2019-Oct-21 14:42 009 16 gusting 24 14.8
2019-Oct-21 14:36 016 16 gusting 23 14.7
2019-Oct-21 14:30 015 15 gusting 22 14.4
2019-Oct-21 14:24 010 15 gusting 22 14.3
2019-Oct-21 14:18 008 12 gusting 17 14.0
2019-Oct-21 14:12 007 11 gusting 15 13.7
2019-Oct-21 14:06 007 13 gusting 18 13.5
2019-Oct-21 14:00 001 13 gusting 16 13.4
2019-Oct-21 13:54 13.3
2019-Oct-21 13:48 356 13 gusting 18 13.0
2019-Oct-21 13:42 12.9
2019-Oct-21 13:36 355 13 gusting 18 12.7
2019-Oct-21 13:30 357 13 gusting 17 12.7
2019-Oct-21 13:24 347 12 gusting 16 12.6
2019-Oct-21 13:18 351 11 gusting 16 12.5
2019-Oct-21 13:12 348 11 gusting 17 12.3
2019-Oct-21 13:06 347 12 gusting 16 12.1
2019-Oct-21 13:00 343 12 gusting 16 12.1
2019-Oct-21 12:54 345 13 gusting 18 11.9
2019-Oct-21 12:48 347 12 gusting 18 12.0
2019-Oct-21 12:42 344 12 gusting 18 11.8
2019-Oct-21 12:36 344 12 gusting 19 11.7
2019-Oct-21 12:30 338 12 gusting 16 11.6
2019-Oct-21 12:24 336 12 gusting 18 11.6
2019-Oct-21 12:18 336 13 gusting 18 11.6
2019-Oct-21 12:12 338 13 gusting 19 11.6
2019-Oct-21 12:06 335 13 gusting 19 11.7
2019-Oct-21 12:00 335 11 gusting 16 11.8
2019-Oct-21 11:54 337 12 gusting 17 11.8
2019-Oct-21 11:48 337 12 gusting 17 11.9
2019-Oct-21 11:42 335 12 gusting 17 11.9
2019-Oct-21 11:36 336 12 gusting 19 12.0
2019-Oct-21 11:30 339 12 gusting 17 12.0
2019-Oct-21 11:24 341 11 gusting 16 12.1
2019-Oct-21 11:18 339 11 gusting 16 12.1
2019-Oct-21 11:12 336 11 gusting 16 12.1
2019-Oct-21 11:06 334 12 gusting 17 12.2
2019-Oct-21 11:00 331 12 gusting 16 12.3
2019-Oct-21 10:54 335 11 gusting 15 12.3
2019-Oct-21 10:48 339 11 gusting 17 12.3
2019-Oct-21 10:42 338 12 gusting 15 12.3
2019-Oct-21 10:36 340 12 gusting 19 12.4
2019-Oct-21 10:30 340 13 gusting 19 12.4
2019-Oct-21 10:24 342 12 gusting 17 12.4
2019-Oct-21 10:18 342 13 gusting 18 12.4
2019-Oct-21 10:12 342 11 gusting 17 12.5
2019-Oct-21 10:06 343 11 gusting 16 12.5
2019-Oct-21 10:00 345 12 gusting 17 12.5
2019-Oct-21 09:54 345 13 gusting 19 12.6
2019-Oct-21 09:48 347 12 gusting 17 12.6
2019-Oct-21 09:42 350 13 gusting 19 12.7
2019-Oct-21 09:36 353 13 gusting 19 12.7
2019-Oct-21 09:30 353 12 gusting 17 12.7
2019-Oct-21 09:24 353 14 gusting 20 12.7
2019-Oct-21 09:18 350 14 gusting 19 12.8
2019-Oct-21 09:12 350 14 gusting 19 12.8
2019-Oct-21 09:06 350 13 gusting 20 12.9
2019-Oct-21 09:00 351 13 gusting 19 12.9
2019-Oct-21 08:54 350 15 gusting 21 12.9
2019-Oct-21 08:48 352 15 gusting 20 13.0
2019-Oct-21 08:42 13.0
2019-Oct-21 08:36 358 14 gusting 20 13.0
2019-Oct-21 08:30 353 14 gusting 21 13.0
2019-Oct-21 08:24 351 15 gusting 20 13.1
2019-Oct-21 08:18 352 15 gusting 21 13.1
2019-Oct-21 08:12 350 14 gusting 20 13.1
2019-Oct-21 08:06 353 14 gusting 19 13.2
2019-Oct-21 08:00 356 16 gusting 21 13.3
2019-Oct-21 07:54 001 16 gusting 22 13.3
2019-Oct-21 07:48 13.2
2019-Oct-21 07:42 13.2
2019-Oct-21 07:36 358 16 gusting 24 13.2
2019-Oct-21 07:30 357 16 gusting 23 13.3
2019-Oct-21 07:24 355 16 gusting 23 13.5
2019-Oct-21 07:18 355 18 gusting 28 13.6
2019-Oct-21 07:12 13.6
2019-Oct-21 07:06 357 19 gusting 26 13.6
2019-Oct-21 07:00 358 19 gusting 28 13.7
2019-Oct-21 06:54 357 20 gusting 27 13.8
2019-Oct-21 06:48 13.9
2019-Oct-21 06:42 003 20 gusting 27 13.9
2019-Oct-21 06:36 005 19 gusting 28 13.9
2019-Oct-21 06:30 008 20 gusting 29 13.9
2019-Oct-21 06:24 007 20 gusting 27 13.8
2019-Oct-21 06:18 005 21 gusting 30 13.8
2019-Oct-21 06:12 004 19 gusting 27 13.9
2019-Oct-21 06:06 004 19 gusting 25 13.9
2019-Oct-21 06:00 007 19 gusting 29 13.9
2019-Oct-21 05:54 010 19 gusting 26 13.9
2019-Oct-21 05:48 015 19 gusting 29 14.0
2019-Oct-21 05:42 015 20 gusting 29 13.8
2019-Oct-21 05:36 015 21 gusting 28 13.7
2019-Oct-21 05:30 014 19 gusting 31 13.7
2019-Oct-21 05:24 011 21 gusting 29 13.8
2019-Oct-21 05:18 011 19 gusting 26 14.0
2019-Oct-21 05:12 019 21 gusting 30 14.0
2019-Oct-21 05:06 020 21 gusting 29 14.0
2019-Oct-21 05:00 021 20 gusting 29 14.0
2019-Oct-21 04:54 019 21 gusting 30 14.0
2019-Oct-21 04:48 018 19 gusting 31 13.9
2019-Oct-21 04:42 017 20 gusting 28 13.8
2019-Oct-21 04:36 018 20 gusting 32 13.7
2019-Oct-21 04:30 019 20 gusting 28 13.5
2019-Oct-21 04:24 020 19 gusting 28 13.4
2019-Oct-21 04:18 020 19 gusting 27 13.2
2019-Oct-21 04:12 020 20 gusting 28 13.1
2019-Oct-21 04:06 019 21 gusting 30 12.8
2019-Oct-21 04:00 019 22 gusting 34 12.8
2019-Oct-21 03:54 017 22 gusting 32 12.9
2019-Oct-21 03:48 016 20 gusting 32 13.0
2019-Oct-21 03:42 015 22 gusting 33 13.0
2019-Oct-21 03:36 015 20 gusting 28 13.1
2019-Oct-21 03:30 016 19 gusting 27 13.1
2019-Oct-21 03:24 015 21 gusting 30 13.1
2019-Oct-21 03:18 012 21 gusting 28 13.0
2019-Oct-21 03:12 012 20 gusting 29 13.0
2019-Oct-21 03:06 012 22 gusting 29 13.2
2019-Oct-21 03:00 014 19 gusting 27 13.3
2019-Oct-21 02:54 012 18 gusting 28 13.3
2019-Oct-21 02:48 016 19 gusting 27 13.4
2019-Oct-21 02:42 017 19 gusting 29 13.4
2019-Oct-21 02:36 015 22 gusting 32 13.5
2019-Oct-21 02:30 017 20 gusting 30 13.7
2019-Oct-21 02:24 018 21 gusting 31 13.6
2019-Oct-21 02:18 017 21 gusting 30 13.6
2019-Oct-21 02:12 016 21 gusting 32 13.6
2019-Oct-21 02:06 015 21 gusting 30 13.6
2019-Oct-21 02:00 014 22 gusting 31 13.6
2019-Oct-21 01:54 016 22 gusting 31 13.6
2019-Oct-21 01:48 014 21 gusting 27 13.7
2019-Oct-21 01:42 015 20 gusting 29 13.6
2019-Oct-21 01:36 015 21 gusting 30 13.6
2019-Oct-21 01:30 016 20 gusting 30 13.7
2019-Oct-21 01:24 018 20 gusting 29 13.6
2019-Oct-21 01:18 020 21 gusting 29 13.7
2019-Oct-21 01:12 020 20 gusting 29 13.7
2019-Oct-21 01:06 021 21 gusting 28 13.7
2019-Oct-21 01:00 022 21 gusting 29 13.7
2019-Oct-21 00:54 020 21 gusting 30 13.6
2019-Oct-21 00:48 020 20 gusting 30 13.6
2019-Oct-21 00:42 021 20 gusting 30 13.7
2019-Oct-21 00:36 021 19 gusting 28 13.7
2019-Oct-21 00:30 022 20 gusting 29 13.8
2019-Oct-21 00:24 022 18 gusting 30 13.8
2019-Oct-21 00:18 021 18 gusting 27 13.7
2019-Oct-21 00:12 022 18 gusting 27 13.7
2019-Oct-21 00:06 022 18 gusting 28 13.6
2019-Oct-21 00:00 023 20 gusting 28 13.5
2019-Oct-20 23:54 022 19 gusting 27 13.6
2019-Oct-20 23:48 024 19 gusting 28 13.8
2019-Oct-20 23:42 024 19 gusting 29 14.0
2019-Oct-20 23:36 026 21 gusting 33 14.1
2019-Oct-20 23:30 026 18 gusting 29 14.1
2019-Oct-20 23:24 026 21 gusting 32 13.9
2019-Oct-20 23:18 027 21 gusting 29 13.9
2019-Oct-20 23:12 026 19 gusting 29 13.8
2019-Oct-20 23:06 029 19 gusting 29 13.9
2019-Oct-20 23:00 029 20 gusting 31 14.1
2019-Oct-20 22:54 032 16 gusting 30 14.1
2019-Oct-20 22:48 030 18 gusting 28 14.0
2019-Oct-20 22:42 031 18 gusting 30 14.1
2019-Oct-20 22:36 031 17 gusting 32 14.1
2019-Oct-20 22:30 032 16 gusting 28 14.2
2019-Oct-20 22:24 034 15 gusting 29 14.4
2019-Oct-20 22:18 033 13 gusting 24 14.3
2019-Oct-20 22:12 036 15 gusting 27 14.3
2019-Oct-20 22:06 032 15 gusting 27 13.9
2019-Oct-20 22:00 033 15 gusting 28 14.2